createdAt,value
2022-09-09T00:00:24.742Z,0.80
2022-09-09T00:01:24.743Z,1.10
2022-09-09T00:02:24.989Z,0.70
2022-09-09T00:03:24.875Z,0.90
2022-09-09T00:04:24.690Z,1.00
2022-09-09T00:05:24.730Z,1.00
2022-09-09T00:06:24.668Z,0.70
2022-09-09T00:07:24.652Z,1.00
2022-09-09T00:08:24.649Z,1.00
2022-09-09T00:09:24.633Z,1.00
2022-09-09T00:10:24.645Z,1.00
2022-09-09T00:11:27.070Z,0.80
2022-09-09T00:12:24.614Z,1.10
2022-09-09T00:13:24.599Z,1.10
2022-09-09T00:14:24.587Z,0.90
2022-09-09T00:15:24.573Z,0.90
2022-09-09T00:16:24.706Z,0.90
2022-09-09T00:17:24.552Z,0.80
2022-09-09T00:18:24.547Z,1.10
2022-09-09T00:19:24.534Z,1.20
2022-09-09T00:20:24.524Z,1.00
2022-09-09T00:21:24.526Z,0.80
2022-09-09T00:22:24.508Z,0.90
2022-09-09T00:23:24.495Z,0.90
2022-09-09T00:24:24.488Z,1.00
2022-09-09T00:25:24.482Z,1.10
2022-09-09T00:26:24.479Z,0.90
2022-09-09T00:27:24.465Z,1.10
2022-09-09T00:28:24.468Z,1.00
2022-09-09T00:29:24.448Z,1.20
2022-09-09T00:30:24.423Z,1.10
2022-09-09T00:31:24.507Z,1.00
2022-09-09T00:32:24.402Z,0.90
2022-09-09T00:33:24.398Z,1.20
2022-09-09T00:34:24.386Z,1.20
2022-09-09T00:35:24.376Z,0.90
2022-09-09T00:36:24.377Z,0.80
2022-09-09T00:37:24.358Z,1.20
2022-09-09T00:38:24.343Z,1.00
2022-09-09T00:39:24.336Z,1.30
2022-09-09T00:40:24.322Z,1.10
2022-09-09T00:41:24.331Z,1.30
2022-09-09T00:42:24.306Z,1.40
2022-09-09T00:43:24.297Z,1.20
2022-09-09T00:44:24.284Z,1.60
2022-09-09T00:45:24.276Z,1.20
2022-09-09T00:46:24.352Z,0.90
2022-09-09T00:47:24.257Z,1.00
2022-09-09T00:48:24.241Z,1.00
2022-09-09T00:49:24.236Z,1.10
2022-09-09T00:50:24.223Z,1.00
2022-09-09T00:51:24.231Z,1.20
2022-09-09T00:52:24.202Z,1.20
2022-09-09T00:53:24.204Z,1.50
2022-09-09T00:54:24.191Z,1.20
2022-09-09T00:55:24.177Z,1.10
2022-09-09T00:56:24.172Z,1.40
2022-09-09T00:57:24.162Z,1.30
2022-09-09T00:58:24.143Z,1.10
2022-09-09T00:59:28.211Z,1.20
2022-09-09T01:00:24.130Z,1.30
2022-09-09T01:01:24.179Z,1.50
2022-09-09T01:02:24.141Z,1.30
2022-09-09T01:03:24.098Z,1.00
2022-09-09T01:04:24.084Z,1.20
2022-09-09T01:05:24.078Z,1.20
2022-09-09T01:06:24.079Z,1.60
2022-09-09T01:07:24.058Z,1.20
2022-09-09T01:08:24.044Z,1.30
2022-09-09T01:09:24.039Z,1.30
2022-09-09T01:10:24.022Z,1.70
2022-09-09T01:11:24.032Z,1.50
2022-09-09T01:12:24.004Z,1.20
2022-09-09T01:13:23.996Z,1.30
2022-09-09T01:14:23.985Z,1.60
2022-09-09T01:15:23.979Z,1.40
2022-09-09T01:16:24.014Z,1.30
2022-09-09T01:17:23.957Z,1.10
2022-09-09T01:18:23.945Z,1.30
2022-09-09T01:19:23.936Z,1.20
2022-09-09T01:20:23.922Z,1.90
2022-09-09T01:21:23.934Z,1.30
2022-09-09T01:22:23.903Z,1.80
2022-09-09T01:23:23.897Z,1.30
2022-09-09T01:24:23.884Z,1.20
2022-09-09T01:25:23.877Z,1.80
2022-09-09T01:26:23.878Z,1.30
2022-09-09T01:27:23.858Z,1.30
2022-09-09T01:28:23.847Z,1.40
2022-09-09T01:29:23.838Z,1.30
2022-09-09T01:30:23.839Z,1.30
2022-09-09T01:31:23.907Z,1.80
2022-09-09T01:32:23.801Z,1.70
2022-09-09T01:33:23.796Z,1.10
2022-09-09T01:34:23.781Z,1.10
2022-09-09T01:35:23.776Z,1.30
2022-09-09T01:36:23.775Z,1.20
2022-09-09T01:37:23.760Z,1.20
2022-09-09T01:38:23.744Z,1.30
2022-09-09T01:39:23.737Z,1.30
2022-09-09T01:40:23.723Z,1.30
2022-09-09T01:41:23.730Z,1.30
2022-09-09T01:42:23.704Z,1.40
2022-09-09T01:43:23.702Z,1.20
2022-09-09T01:44:23.691Z,1.10
2022-09-09T01:45:23.681Z,1.10
2022-09-09T01:46:23.750Z,1.40
2022-09-09T01:47:23.659Z,1.30
2022-09-09T01:48:23.643Z,1.50
2022-09-09T01:49:23.635Z,1.20
2022-09-09T01:50:23.632Z,1.10
2022-09-09T01:51:23.786Z,1.50
2022-09-09T01:52:23.603Z,1.40
2022-09-09T01:53:23.597Z,1.50
2022-09-09T01:54:23.582Z,1.40
2022-09-09T01:55:23.577Z,1.50
2022-09-09T01:56:23.563Z,1.40
2022-09-09T01:57:23.584Z,1.30
2022-09-09T01:58:23.542Z,1.20
2022-09-09T01:59:23.537Z,1.20
2022-09-09T02:00:23.524Z,1.70
2022-09-09T02:01:23.655Z,1.50
2022-09-09T02:02:23.601Z,1.20
2022-09-09T02:03:23.498Z,1.50
2022-09-09T02:04:23.486Z,1.50
2022-09-09T02:05:23.477Z,1.10
2022-09-09T02:06:23.464Z,1.50
2022-09-09T02:07:23.473Z,1.20
2022-09-09T02:08:23.443Z,1.30
2022-09-09T02:09:23.437Z,1.30
2022-09-09T02:10:23.429Z,1.30
2022-09-09T02:11:23.422Z,1.10
2022-09-09T02:12:23.416Z,0.90
2022-09-09T02:13:23.413Z,1.30
2022-09-09T02:14:23.394Z,1.10
2022-09-09T02:15:23.379Z,1.10
2022-09-09T02:16:23.412Z,1.10
2022-09-09T02:17:23.371Z,1.20
2022-09-09T02:18:23.354Z,1.30
2022-09-09T02:19:23.336Z,1.20
2022-09-09T02:20:23.326Z,1.50
2022-09-09T02:21:23.319Z,1.50
2022-09-09T02:22:23.319Z,1.20
2022-09-09T02:23:23.403Z,1.50
2022-09-09T02:24:23.283Z,1.40
2022-09-09T02:25:23.280Z,1.40
2022-09-09T02:26:23.297Z,1.40
2022-09-09T02:27:23.271Z,1.40
2022-09-09T02:28:23.246Z,1.20
2022-09-09T02:29:23.238Z,1.30
2022-09-09T02:30:23.283Z,1.40
2022-09-09T02:31:23.226Z,1.60
2022-09-09T02:32:23.222Z,1.50
2022-09-09T02:33:23.203Z,1.20
2022-09-09T02:34:23.184Z,1.30
2022-09-09T02:35:23.179Z,1.10
2022-09-09T02:36:23.165Z,1.40
2022-09-09T02:37:23.171Z,1.40
2022-09-09T02:38:23.145Z,1.30
2022-09-09T02:39:23.141Z,1.40
2022-09-09T02:40:23.125Z,1.30
2022-09-09T02:41:23.119Z,1.10
2022-09-09T02:42:23.122Z,1.40
2022-09-09T02:43:23.097Z,1.20
2022-09-09T02:44:23.086Z,1.60
2022-09-09T02:45:23.076Z,1.40
2022-09-09T02:46:23.169Z,1.10
2022-09-09T02:47:23.075Z,1.50
2022-09-09T02:48:23.043Z,1.10
2022-09-09T02:49:23.040Z,1.40
2022-09-09T02:50:23.023Z,1.40
2022-09-09T02:51:23.019Z,1.00
2022-09-09T02:52:23.022Z,1.30
2022-09-09T02:53:23.002Z,1.20
2022-09-09T02:54:22.984Z,1.40
2022-09-09T02:55:22.978Z,1.50
2022-09-09T02:56:22.966Z,1.10
2022-09-09T02:57:22.974Z,1.20
2022-09-09T02:58:22.944Z,1.10
2022-09-09T02:59:22.939Z,1.40
2022-09-09T03:00:22.922Z,1.40
2022-09-09T03:01:23.002Z,1.40
2022-09-09T03:02:22.981Z,1.20
2022-09-09T03:03:22.900Z,1.40
2022-09-09T03:04:22.888Z,1.30
2022-09-09T03:05:22.880Z,1.40
2022-09-09T03:06:22.865Z,1.00
2022-09-09T03:07:22.872Z,1.50
2022-09-09T03:08:22.850Z,1.30
2022-09-09T03:09:22.839Z,1.30
2022-09-09T03:10:22.833Z,1.30
2022-09-09T03:11:22.819Z,1.40
2022-09-09T03:12:22.818Z,1.40
2022-09-09T03:13:22.814Z,1.50
2022-09-09T03:14:22.791Z,1.40
2022-09-09T03:15:22.780Z,1.40
2022-09-09T03:16:22.799Z,1.70
2022-09-09T03:17:22.767Z,1.10
2022-09-09T03:18:22.745Z,1.50
2022-09-09T03:19:22.748Z,1.20
2022-09-09T03:20:22.729Z,1.30
2022-09-09T03:21:22.720Z,1.30
2022-09-09T03:22:22.718Z,1.20
2022-09-09T03:23:22.716Z,1.10
2022-09-09T03:24:22.687Z,1.40
2022-09-09T03:25:22.681Z,1.20
2022-09-09T03:26:22.668Z,1.30
2022-09-09T03:27:22.675Z,1.20
2022-09-09T03:28:22.644Z,1.30
2022-09-09T03:29:22.645Z,1.40
2022-09-09T03:30:22.625Z,1.20
2022-09-09T03:31:22.679Z,1.30
2022-09-09T03:32:22.621Z,1.50
2022-09-09T03:33:22.603Z,1.40
2022-09-09T03:34:23.430Z,1.30
2022-09-09T03:35:22.583Z,1.50
2022-09-09T03:36:22.562Z,1.50
2022-09-09T03:37:22.572Z,1.20
2022-09-09T03:38:22.545Z,1.30
2022-09-09T03:39:22.545Z,1.20
2022-09-09T03:40:22.526Z,1.30
2022-09-09T03:41:22.520Z,1.20
2022-09-09T03:42:22.521Z,1.40
2022-09-09T03:43:22.503Z,1.60
2022-09-09T03:44:22.492Z,1.00
2022-09-09T03:45:22.479Z,1.20
2022-09-09T03:46:22.464Z,0.90
2022-09-09T03:47:22.474Z,1.20
2022-09-09T03:48:22.451Z,1.20
2022-09-09T03:49:22.440Z,1.60
2022-09-09T03:50:22.443Z,1.10
2022-09-09T03:51:22.428Z,1.10
2022-09-09T03:52:23.843Z,1.20
2022-09-09T03:53:22.426Z,1.10
2022-09-09T03:54:22.387Z,1.30
2022-09-09T03:55:22.380Z,1.20
2022-09-09T03:56:22.366Z,1.30
2022-09-09T03:57:22.374Z,1.00
2022-09-09T03:58:22.343Z,1.30
2022-09-09T03:59:22.347Z,1.00
2022-09-09T04:00:22.349Z,1.40
2022-09-09T04:01:22.477Z,1.10
2022-09-09T04:02:22.383Z,1.20
2022-09-09T04:03:25.916Z,1.20
2022-09-09T04:04:22.293Z,1.00
2022-09-09T04:05:22.296Z,1.20
2022-09-09T04:06:22.281Z,1.10
2022-09-09T04:07:22.274Z,1.50
2022-09-09T04:08:22.249Z,1.30
2022-09-09T04:09:22.245Z,1.20
2022-09-09T04:10:22.226Z,0.90
2022-09-09T04:11:22.220Z,1.20
2022-09-09T04:12:22.239Z,0.90
2022-09-09T04:13:22.206Z,1.20
2022-09-09T04:14:22.196Z,1.00
2022-09-09T04:15:22.184Z,1.20
2022-09-09T04:16:22.232Z,1.20
2022-09-09T04:17:22.172Z,1.40
2022-09-09T04:18:22.148Z,1.30
2022-09-09T04:19:22.142Z,1.50
2022-09-09T04:20:22.135Z,1.10
2022-09-09T04:21:22.132Z,1.50
2022-09-09T04:22:22.122Z,1.20
2022-09-09T04:23:22.101Z,0.90
2022-09-09T04:24:22.087Z,1.20
2022-09-09T04:25:22.084Z,0.90
2022-09-09T04:26:22.072Z,1.00
2022-09-09T04:27:22.078Z,1.30
2022-09-09T04:28:22.050Z,1.40
2022-09-09T04:29:22.041Z,1.10
2022-09-09T04:30:22.026Z,1.10
2022-09-09T04:31:22.041Z,1.20
2022-09-09T04:32:22.022Z,1.30
2022-09-09T04:33:22.008Z,1.00
2022-09-09T04:34:21.991Z,0.90
2022-09-09T04:35:21.980Z,1.20
2022-09-09T04:36:21.967Z,1.40
2022-09-09T04:37:21.972Z,1.00
2022-09-09T04:38:21.946Z,1.00
2022-09-09T04:39:21.942Z,1.10
2022-09-09T04:40:21.934Z,1.20
2022-09-09T04:41:21.922Z,1.20
2022-09-09T04:42:21.927Z,0.80
2022-09-09T04:43:21.903Z,1.10
2022-09-09T04:44:21.887Z,1.20
2022-09-09T04:45:21.931Z,1.20
2022-09-09T04:46:21.869Z,1.10
2022-09-09T04:47:21.877Z,1.30
2022-09-09T04:48:21.853Z,1.20
2022-09-09T04:49:21.835Z,1.30
2022-09-09T04:50:21.829Z,1.30
2022-09-09T04:51:21.814Z,1.30
2022-09-09T04:52:21.813Z,1.10
2022-09-09T04:53:21.809Z,1.00
2022-09-09T04:54:21.790Z,1.00
2022-09-09T04:55:21.776Z,1.10
2022-09-09T04:56:21.772Z,1.10
2022-09-09T04:57:21.756Z,1.10
2022-09-09T04:58:21.765Z,0.90
2022-09-09T04:59:21.734Z,1.20
2022-09-09T05:00:21.732Z,1.30
2022-09-09T05:01:21.764Z,1.00
2022-09-09T05:02:21.757Z,1.10
2022-09-09T05:03:21.731Z,1.30
2022-09-09T05:04:21.691Z,1.00
2022-09-09T05:05:21.674Z,0.90
2022-09-09T05:06:21.673Z,1.00
2022-09-09T05:07:21.658Z,1.30
2022-09-09T05:08:21.669Z,1.10
2022-09-09T05:09:21.636Z,1.00
2022-09-09T05:10:21.630Z,1.00
2022-09-09T05:11:21.619Z,1.10
2022-09-09T05:12:21.610Z,1.10
2022-09-09T05:13:21.610Z,1.10
2022-09-09T05:14:21.592Z,1.00
2022-09-09T05:15:21.577Z,1.10
2022-09-09T05:16:21.672Z,1.10
2022-09-09T05:17:21.557Z,1.00
2022-09-09T05:18:21.565Z,0.90
2022-09-09T05:19:21.540Z,1.00
2022-09-09T05:20:21.530Z,0.90
2022-09-09T05:21:21.516Z,1.00
2022-09-09T05:22:21.513Z,1.00
2022-09-09T05:23:21.515Z,0.90
2022-09-09T05:24:21.493Z,1.00
2022-09-09T05:25:21.477Z,1.00
2022-09-09T05:26:21.472Z,0.90
2022-09-09T05:27:21.459Z,1.10
2022-09-09T05:28:21.468Z,1.10
2022-09-09T05:29:21.438Z,0.90
2022-09-09T05:30:21.432Z,1.10
2022-09-09T05:31:21.498Z,0.90
2022-09-09T05:32:21.412Z,0.90
2022-09-09T05:33:21.410Z,0.90
2022-09-09T05:34:21.391Z,1.10
2022-09-09T05:35:21.383Z,1.00
2022-09-09T05:36:21.376Z,1.20
2022-09-09T05:37:21.367Z,1.10
2022-09-09T05:38:23.778Z,1.10
2022-09-09T05:39:21.359Z,1.00
2022-09-09T05:40:21.447Z,1.10
2022-09-09T05:41:21.322Z,1.20
2022-09-09T05:42:21.320Z,0.90
2022-09-09T05:43:21.312Z,0.90
2022-09-09T05:44:21.301Z,1.10
2022-09-09T05:45:21.288Z,1.00
2022-09-09T05:46:21.366Z,0.90
2022-09-09T05:47:21.258Z,1.40
2022-09-09T05:48:21.265Z,1.00
2022-09-09T05:49:21.240Z,1.20
2022-09-09T05:50:21.242Z,1.40
2022-09-09T05:51:21.217Z,1.00
2022-09-09T05:52:21.211Z,1.20
2022-09-09T05:53:21.208Z,1.40
2022-09-09T05:54:21.194Z,1.10
2022-09-09T05:55:21.178Z,1.10
2022-09-09T05:56:21.172Z,1.60
2022-09-09T05:57:21.170Z,1.70
2022-09-09T05:58:21.167Z,1.40
2022-09-09T05:59:21.139Z,1.20
2022-09-09T06:00:21.131Z,1.40
2022-09-09T06:01:21.117Z,1.20
2022-09-09T06:02:21.223Z,1.50
2022-09-09T06:03:21.159Z,0.90
2022-09-09T06:04:21.095Z,1.00
2022-09-09T06:05:21.075Z,1.70
2022-09-09T06:06:21.073Z,1.00
2022-09-09T06:07:21.059Z,1.00
2022-09-09T06:08:21.065Z,1.30
2022-09-09T06:09:21.048Z,1.10
2022-09-09T06:10:21.032Z,1.00
2022-09-09T06:11:21.018Z,1.20
2022-09-09T06:12:21.013Z,1.40
2022-09-09T06:13:21.027Z,1.20
2022-09-09T06:14:20.995Z,1.40
2022-09-09T06:15:20.979Z,1.50
2022-09-09T06:16:21.070Z,1.70
2022-09-09T06:17:20.957Z,2.20
2022-09-09T06:18:20.963Z,1.30
2022-09-09T06:19:20.938Z,1.60
2022-09-09T06:20:20.931Z,1.30
2022-09-09T06:21:20.919Z,1.10
2022-09-09T06:22:20.913Z,1.20
2022-09-09T06:23:27.213Z,1.00
2022-09-09T06:24:20.896Z,1.10
2022-09-09T06:25:20.878Z,1.50
2022-09-09T06:26:20.883Z,1.30
2022-09-09T06:27:20.860Z,0.90
2022-09-09T06:28:20.891Z,1.00
2022-09-09T06:29:20.839Z,1.30
2022-09-09T06:30:20.833Z,1.60
2022-09-09T06:31:20.837Z,1.40
2022-09-09T06:32:20.813Z,1.80
2022-09-09T06:33:20.829Z,1.90
2022-09-09T06:34:20.808Z,1.90
2022-09-09T06:35:20.783Z,1.80
2022-09-09T06:36:20.781Z,1.50
2022-09-09T06:37:20.760Z,1.20
2022-09-09T06:38:20.769Z,1.10
2022-09-09T06:39:20.739Z,0.80
2022-09-09T06:40:20.817Z,1.10
2022-09-09T06:41:20.720Z,1.30
2022-09-09T06:42:20.712Z,0.90
2022-09-09T06:43:20.713Z,1.00
2022-09-09T06:44:20.693Z,1.10
2022-09-09T06:45:20.679Z,1.80
2022-09-09T06:46:20.725Z,1.50
2022-09-09T06:47:20.662Z,1.70
2022-09-09T06:48:20.670Z,1.80
2022-09-09T06:49:20.638Z,1.70
2022-09-09T06:50:20.641Z,1.90
2022-09-09T06:51:20.619Z,1.60
2022-09-09T06:52:20.618Z,1.50
2022-09-09T06:53:20.617Z,1.80
2022-09-09T06:54:20.602Z,1.70
2022-09-09T06:55:20.586Z,1.50
2022-09-09T06:56:20.580Z,1.70
2022-09-09T06:57:36.313Z,1.60
2022-09-09T06:58:20.574Z,1.50
2022-09-09T06:59:20.544Z,1.70
2022-09-09T07:00:20.551Z,1.50
2022-09-09T07:01:20.629Z,1.40
2022-09-09T07:02:20.565Z,1.70
2022-09-09T07:03:20.518Z,1.70
2022-09-09T07:04:20.496Z,1.30
2022-09-09T07:05:20.482Z,1.70
2022-09-09T07:06:20.477Z,1.00
2022-09-09T07:07:20.467Z,0.80
2022-09-09T07:08:20.470Z,1.50
2022-09-09T07:09:20.447Z,1.50
2022-09-09T07:10:20.436Z,1.40
2022-09-09T07:11:20.423Z,1.70
2022-09-09T07:12:20.418Z,1.20
2022-09-09T07:13:20.423Z,0.90
2022-09-09T07:14:20.398Z,1.30
2022-09-09T07:15:20.384Z,1.10
2022-09-09T07:16:20.451Z,0.60
2022-09-09T07:17:20.385Z,1.10
2022-09-09T07:18:20.370Z,0.80
2022-09-09T07:19:20.345Z,1.10
2022-09-09T07:20:20.337Z,1.10
2022-09-09T07:21:20.337Z,0.90
2022-09-09T07:22:20.321Z,1.20
2022-09-09T07:23:20.323Z,0.90
2022-09-09T07:24:20.299Z,0.80
2022-09-09T07:25:20.290Z,0.80
2022-09-09T07:26:20.288Z,0.90
2022-09-09T07:27:20.270Z,1.30
2022-09-09T07:28:20.274Z,1.00
2022-09-09T07:29:21.187Z,1.40
2022-09-09T07:30:24.328Z,1.60
2022-09-09T07:31:20.253Z,1.50
2022-09-09T07:32:20.221Z,1.60
2022-09-09T07:33:20.243Z,1.40
2022-09-09T07:34:20.202Z,1.40
2022-09-09T07:35:20.189Z,1.50
2022-09-09T07:36:20.183Z,1.60
2022-09-09T07:37:20.173Z,1.60
2022-09-09T07:38:20.175Z,1.80
2022-09-09T07:39:20.148Z,1.60
2022-09-09T07:40:20.249Z,1.50
2022-09-09T07:41:20.128Z,1.50
2022-09-09T07:42:20.121Z,1.40
2022-09-09T07:43:20.142Z,1.10
2022-09-09T07:44:20.108Z,0.90
2022-09-09T07:45:20.092Z,1.00
2022-09-09T07:46:20.178Z,0.80
2022-09-09T07:47:20.069Z,0.60
2022-09-09T07:48:20.080Z,0.80
2022-09-09T07:49:26.235Z,0.70
2022-09-09T07:50:20.057Z,0.70
2022-09-09T07:51:20.043Z,0.80
2022-09-09T07:52:20.714Z,0.70
2022-09-09T07:53:20.034Z,0.70
2022-09-09T07:54:20.005Z,0.90
2022-09-09T07:55:19.991Z,0.60
2022-09-09T07:56:19.990Z,0.80
2022-09-09T07:57:19.973Z,0.80
2022-09-09T07:58:19.968Z,0.60
2022-09-09T07:59:19.969Z,0.90
2022-09-09T08:00:20.040Z,0.70
2022-09-09T08:01:19.989Z,0.70
2022-09-09T08:02:19.940Z,0.80
2022-09-09T08:03:19.996Z,1.10
2022-09-09T08:04:19.927Z,1.10
2022-09-09T08:05:19.898Z,0.90
2022-09-09T08:06:19.897Z,1.60
2022-09-09T08:07:19.874Z,1.70
2022-09-09T08:08:19.872Z,1.60
2022-09-09T08:09:19.873Z,1.60
2022-09-09T08:10:19.882Z,1.60
2022-09-09T08:11:19.834Z,1.60
2022-09-09T08:12:19.835Z,1.60
2022-09-09T08:13:19.837Z,1.20
2022-09-09T08:14:19.810Z,1.00
2022-09-09T08:15:19.796Z,1.60
2022-09-09T08:16:19.837Z,1.60
2022-09-09T08:17:19.779Z,1.60
2022-09-09T08:18:19.770Z,0.90
2022-09-09T08:19:19.766Z,1.60
2022-09-09T08:20:19.747Z,1.80
2022-09-09T08:21:19.735Z,1.40
2022-09-09T08:22:19.745Z,1.40
2022-09-09T08:23:19.722Z,1.00
2022-09-09T08:24:19.726Z,1.00
2022-09-09T08:25:19.700Z,0.80
2022-09-09T08:26:19.692Z,1.00
2022-09-09T08:27:19.679Z,0.80
2022-09-09T08:28:19.671Z,0.80
2022-09-09T08:29:19.674Z,0.70
2022-09-09T08:30:19.652Z,0.80
2022-09-09T08:31:19.748Z,1.00
2022-09-09T08:32:19.634Z,0.80
2022-09-09T08:33:19.619Z,0.70
2022-09-09T08:34:19.627Z,0.90
2022-09-09T08:35:19.597Z,0.90
2022-09-09T08:36:19.594Z,0.80
2022-09-09T08:37:19.593Z,0.60
2022-09-09T08:38:19.572Z,0.80
2022-09-09T08:39:19.581Z,0.90
2022-09-09T08:40:19.645Z,0.80
2022-09-09T08:41:19.544Z,1.00
2022-09-09T08:42:19.535Z,0.80
2022-09-09T08:43:19.520Z,0.60
2022-09-09T08:44:19.538Z,1.00
2022-09-09T08:45:19.504Z,0.80
2022-09-09T08:46:19.560Z,1.00
2022-09-09T08:47:19.479Z,0.80
2022-09-09T08:48:19.479Z,0.80
2022-09-09T08:49:19.478Z,0.60
2022-09-09T08:50:19.455Z,0.80
2022-09-09T08:51:19.441Z,0.70
2022-09-09T08:52:19.436Z,0.80
2022-09-09T08:53:19.422Z,0.70
2022-09-09T08:54:41.466Z,0.80
2022-09-09T08:55:19.407Z,0.90
2022-09-09T08:56:19.400Z,0.70
2022-09-09T08:57:19.382Z,0.80
2022-09-09T08:58:19.377Z,0.70
2022-09-09T08:59:19.373Z,0.90
2022-09-09T09:00:19.353Z,0.80
2022-09-09T09:01:19.412Z,0.80
2022-09-09T09:02:19.332Z,0.80
2022-09-09T09:03:19.329Z,0.90
2022-09-09T09:04:19.404Z,0.80
2022-09-09T09:05:19.313Z,0.90
2022-09-09T09:06:19.292Z,1.00
2022-09-09T09:07:19.287Z,0.80
2022-09-09T09:08:19.273Z,0.90
2022-09-09T09:09:19.270Z,0.90
2022-09-09T09:10:40.461Z,0.80
2022-09-09T09:11:19.255Z,0.80
2022-09-09T09:12:19.236Z,1.00
2022-09-09T09:13:19.229Z,0.70
2022-09-09T09:14:19.293Z,0.80
2022-09-09T09:15:19.223Z,0.90
2022-09-09T09:16:19.233Z,1.00
2022-09-09T09:17:19.191Z,0.80
2022-09-09T09:18:19.175Z,1.20
2022-09-09T09:19:19.173Z,0.80
2022-09-09T09:20:19.182Z,0.90
2022-09-09T09:21:19.148Z,0.80
2022-09-09T09:22:19.136Z,0.80
2022-09-09T09:23:19.130Z,1.20
2022-09-09T09:24:21.420Z,1.00
2022-09-09T09:25:19.127Z,1.30
2022-09-09T09:26:19.097Z,1.10
2022-09-09T09:27:19.092Z,0.70
2022-09-09T09:28:19.083Z,0.90
2022-09-09T09:29:19.075Z,1.30
2022-09-09T09:30:26.672Z,0.90
2022-09-09T09:31:19.122Z,0.90
2022-09-09T09:32:19.039Z,1.00
2022-09-09T09:33:19.032Z,1.10
2022-09-09T09:34:19.021Z,0.70
2022-09-09T09:35:19.024Z,0.70
2022-09-09T09:36:18.998Z,1.00
2022-09-09T09:37:18.997Z,1.00
2022-09-09T09:40:18.975Z,0.70
2022-09-09T09:41:18.954Z,0.80
2022-09-09T09:42:21.738Z,1.50
2022-09-09T09:43:18.931Z,0.90
2022-09-09T09:44:18.919Z,1.30
2022-09-09T09:45:18.925Z,0.80
2022-09-09T09:46:19.027Z,0.90
2022-09-09T09:47:18.892Z,0.70
2022-09-09T09:48:18.878Z,1.30
2022-09-09T09:49:18.873Z,0.90
2022-09-09T09:50:18.869Z,1.00
2022-09-09T09:51:18.854Z,0.80
2022-09-09T09:52:18.843Z,0.80
2022-09-09T09:53:18.836Z,0.80
2022-09-09T09:54:18.826Z,0.70
2022-09-09T09:55:18.828Z,0.80
2022-09-09T09:56:18.802Z,1.00
2022-09-09T09:57:18.818Z,0.60
2022-09-09T09:58:18.978Z,0.70
2022-09-09T09:59:29.658Z,0.90
2022-09-09T10:00:18.857Z,0.70
2022-09-09T10:01:18.800Z,0.70
2022-09-09T10:02:18.742Z,0.70
2022-09-09T10:03:18.739Z,0.80
2022-09-09T10:04:18.745Z,0.80
2022-09-09T10:05:22.002Z,0.80
2022-09-09T10:06:18.713Z,0.70
2022-09-09T10:07:18.700Z,1.10
2022-09-09T10:08:18.683Z,0.80
2022-09-09T10:09:18.699Z,0.80
2022-09-09T10:10:18.678Z,0.90
2022-09-09T10:11:18.662Z,0.80
2022-09-09T10:12:18.687Z,0.90
2022-09-09T10:13:18.639Z,0.90
2022-09-09T10:14:18.625Z,0.90
2022-09-09T10:15:18.633Z,0.80
2022-09-09T10:16:18.629Z,1.10
2022-09-09T10:17:18.602Z,1.10
2022-09-09T10:18:18.587Z,0.80
2022-09-09T10:19:18.581Z,0.80
2022-09-09T10:20:18.576Z,1.10
2022-09-09T10:21:18.560Z,0.70
2022-09-09T10:22:18.546Z,0.70
2022-09-09T10:23:18.543Z,0.70
2022-09-09T10:24:18.549Z,1.00
2022-09-09T10:25:18.532Z,0.70
2022-09-09T10:26:18.511Z,0.90
2022-09-09T10:27:18.502Z,0.70
2022-09-09T10:28:18.489Z,1.00
2022-09-09T10:29:18.489Z,1.20
2022-09-09T10:30:18.480Z,1.00
2022-09-09T10:31:18.617Z,1.10
2022-09-09T10:32:18.450Z,0.90
2022-09-09T10:33:18.444Z,0.80
2022-09-09T10:34:18.429Z,0.60
2022-09-09T10:35:18.435Z,1.00
2022-09-09T10:36:18.420Z,0.90
2022-09-09T10:37:18.405Z,0.80
2022-09-09T10:38:18.393Z,0.90
2022-09-09T10:39:18.385Z,0.90
2022-09-09T10:40:18.456Z,0.80
2022-09-09T10:41:18.368Z,0.90
2022-09-09T10:42:18.352Z,0.80
2022-09-09T10:43:18.345Z,1.00
2022-09-09T10:44:18.332Z,0.80
2022-09-09T10:45:18.338Z,0.70
2022-09-09T10:46:18.336Z,1.00
2022-09-09T10:47:18.321Z,0.70
2022-09-09T10:48:18.292Z,0.80
2022-09-09T10:49:22.573Z,0.80
2022-09-09T10:50:18.288Z,0.70
2022-09-09T10:51:18.271Z,0.70
2022-09-09T10:52:18.277Z,0.90
2022-09-09T10:53:18.262Z,0.70
2022-09-09T10:54:18.357Z,0.70
2022-09-09T10:55:18.242Z,0.80
2022-09-09T10:56:18.213Z,1.00
2022-09-09T10:57:18.237Z,0.60
2022-09-09T10:58:18.195Z,0.60
2022-09-09T10:59:18.188Z,0.90
2022-09-09T11:00:18.185Z,0.80
2022-09-09T11:01:18.297Z,1.00
2022-09-09T11:02:18.231Z,0.80
2022-09-09T11:03:18.152Z,0.60
2022-09-09T11:04:18.248Z,0.80
2022-09-09T11:05:18.145Z,0.70
2022-09-09T11:06:18.183Z,0.90
2022-09-09T11:07:18.109Z,0.70
2022-09-09T11:08:18.147Z,0.80
2022-09-09T11:09:18.091Z,0.70
2022-09-09T11:10:18.086Z,0.80
2022-09-09T11:11:18.069Z,1.10
2022-09-09T11:12:18.100Z,0.90
2022-09-09T11:13:18.051Z,0.90
2022-09-09T11:14:18.035Z,0.70
2022-09-09T11:15:18.044Z,0.90
2022-09-09T11:16:18.078Z,0.80
2022-09-09T11:17:18.009Z,0.90
2022-09-09T11:18:17.997Z,0.80
2022-09-09T11:19:17.996Z,0.70
2022-09-09T11:20:17.991Z,0.90
2022-09-09T11:21:17.969Z,0.70
2022-09-09T11:22:18.161Z,0.90
2022-09-09T11:23:17.953Z,0.70
2022-09-09T11:24:17.936Z,0.80
2022-09-09T11:25:17.943Z,1.00
2022-09-09T11:26:17.919Z,0.90
2022-09-09T11:27:17.911Z,1.00
2022-09-09T11:28:17.977Z,0.90
2022-09-09T11:29:18.826Z,0.80
2022-09-09T11:30:37.755Z,0.80
2022-09-09T11:31:17.912Z,0.80
2022-09-09T11:32:17.953Z,0.80
2022-09-09T11:33:17.854Z,0.70
2022-09-09T11:34:17.838Z,0.90
2022-09-09T11:35:17.848Z,0.80
2022-09-09T11:36:17.813Z,0.80
2022-09-09T11:37:17.815Z,1.00
2022-09-09T11:38:17.798Z,0.90
2022-09-09T11:39:17.794Z,0.80
2022-09-09T11:40:17.791Z,0.90
2022-09-09T11:41:21.555Z,0.80
2022-09-09T11:42:17.807Z,1.10
2022-09-09T11:43:17.753Z,0.90
2022-09-09T11:44:17.749Z,0.80
2022-09-09T11:45:17.747Z,0.90
2022-09-09T11:46:17.749Z,1.10
2022-09-09T11:47:17.715Z,1.40
2022-09-09T11:48:17.699Z,1.10
2022-09-09T11:49:17.695Z,0.80
2022-09-09T11:50:17.693Z,1.00
2022-09-09T11:51:17.677Z,0.70
2022-09-09T11:52:17.663Z,1.00
2022-09-09T11:53:17.656Z,0.90
2022-09-09T11:54:17.641Z,0.90
2022-09-09T11:55:17.647Z,0.90
2022-09-09T11:56:17.656Z,1.30
2022-09-09T11:57:17.613Z,1.00
2022-09-09T11:58:17.604Z,1.00
2022-09-09T11:59:17.595Z,0.80
2022-09-09T12:00:17.591Z,0.70
2022-09-09T12:01:17.575Z,0.90
2022-09-09T12:02:17.675Z,0.80
2022-09-09T12:03:17.557Z,1.10
2022-09-09T12:04:22.072Z,0.60
2022-09-09T12:05:17.604Z,0.60
2022-09-09T12:06:17.520Z,0.60
2022-09-09T12:07:17.514Z,0.90
2022-09-09T12:08:17.501Z,0.90
2022-09-09T12:09:17.546Z,0.80
2022-09-09T12:10:17.483Z,1.20
2022-09-09T12:11:17.474Z,0.90
2022-09-09T12:12:17.487Z,0.90
2022-09-09T12:13:17.455Z,0.80
2022-09-09T12:14:17.443Z,0.80
2022-09-09T12:15:17.448Z,1.00
2022-09-09T12:16:17.465Z,0.90
2022-09-09T12:17:17.418Z,0.90
2022-09-09T12:18:17.403Z,0.80
2022-09-09T12:19:17.399Z,0.90
2022-09-09T12:20:17.396Z,0.90
2022-09-09T12:21:17.377Z,0.80
2022-09-09T12:22:17.362Z,1.00
2022-09-09T12:23:23.353Z,0.70
2022-09-09T12:24:17.357Z,0.80
2022-09-09T12:25:21.400Z,0.80
2022-09-09T12:26:17.328Z,1.10
2022-09-09T12:27:17.316Z,0.80
2022-09-09T12:28:17.305Z,0.90
2022-09-09T12:29:17.313Z,0.90
2022-09-09T12:30:17.285Z,0.80
2022-09-09T12:31:17.292Z,0.70
2022-09-09T12:32:17.264Z,0.80
2022-09-09T12:33:17.265Z,0.90
2022-09-09T12:34:17.257Z,0.70
2022-09-09T12:35:17.239Z,0.70
2022-09-09T12:36:17.225Z,1.00
2022-09-09T12:37:17.223Z,0.80
2022-09-09T12:38:17.207Z,0.80
2022-09-09T12:39:17.213Z,0.80
2022-09-09T12:40:17.263Z,0.60
2022-09-09T12:41:17.180Z,0.70
2022-09-09T12:42:17.167Z,0.80
2022-09-09T12:43:17.159Z,0.70
2022-09-09T12:44:17.159Z,0.60
2022-09-09T12:45:17.139Z,0.60
2022-09-09T12:46:17.184Z,0.70
2022-09-09T12:47:17.122Z,0.70
2022-09-09T12:48:17.107Z,0.80
2022-09-09T12:49:17.115Z,1.10
2022-09-09T12:50:17.090Z,0.70
2022-09-09T12:51:17.088Z,0.80
2022-09-09T12:52:17.066Z,0.80
2022-09-09T12:53:17.063Z,1.00
2022-09-09T12:54:17.063Z,0.70
2022-09-09T12:55:17.045Z,0.70
2022-09-09T12:56:17.031Z,0.90
2022-09-09T12:57:17.024Z,0.50
2022-09-09T12:58:17.021Z,1.20
2022-09-09T12:59:17.023Z,0.80
2022-09-09T13:00:16.989Z,1.00
2022-09-09T13:01:17.178Z,0.70
2022-09-09T13:02:17.010Z,0.70
2022-09-09T13:03:16.964Z,0.70
2022-09-09T13:04:16.964Z,0.80
2022-09-09T13:05:16.945Z,0.70
2022-09-09T13:06:16.932Z,0.80
2022-09-09T13:07:16.926Z,0.80
2022-09-09T13:08:16.924Z,0.70
2022-09-09T13:10:25.503Z,0.70
2022-09-09T13:11:16.936Z,0.90
2022-09-09T13:12:16.869Z,0.90
2022-09-09T13:13:16.867Z,1.00
2022-09-09T13:14:16.868Z,0.70
2022-09-09T13:15:16.842Z,0.90
2022-09-09T13:16:16.893Z,0.90
2022-09-09T13:17:16.822Z,0.80
2022-09-09T13:18:16.818Z,0.80
2022-09-09T13:19:16.819Z,1.00
2022-09-09T13:20:16.797Z,0.70
2022-09-09T13:21:16.784Z,0.70